This is the latest recevied weather packets stored in our database for station/object OH2NJR. If no packets are shown the sender has not sent any weather packets the latest 1 day(s).
| Time | Temp. | Humidity | Pressure | Rain* | Wind** | Luminosity | Snow |
|---|---|---|---|---|---|---|---|
| 1836274440 | 15.56° C | 93% | 1009.6 hPa | 0 mm | 1.79 m/s, 184° | - | - |
| 1836273996 | 15.56° C | 92% | 1009.8 hPa | 0 mm | 1.34 m/s, 165° | - | - |
| 1778037038 | 2.22° C | 78% | 1010.6 hPa | 0 mm | 0.45 m/s, 42° | - | - |
| 1778035948 | 2.22° C | 78% | 1010.4 hPa | 0 mm | 0.45 m/s, 71° | - | - |
| 1778034783 | 2.22° C | 78% | 1010.2 hPa | 0 mm | 0.45 m/s, 44° | - | - |
| 1778033818 | 1.67° C | 78% | 1010.1 hPa | 0 mm | 0.89 m/s, 316° | - | - |
| 1778032678 | 1.67° C | 77% | 1010.1 hPa | 0 mm | 0.89 m/s, 305° | - | - |
| 1778031693 | 1.67° C | 78% | 1010 hPa | 0 mm | 0.89 m/s, 301° | - | - |
| 1778030633 | 2.22° C | 77% | 1010 hPa | 0 mm | 1.79 m/s, 293° | - | - |
| 1778029457 | 2.22° C | 76% | 1009.9 hPa | 0 mm | 0.89 m/s, 305° | - | - |
| 1778028358 | 2.78° C | 75% | 1009.3 hPa | 0 mm | 0.89 m/s, 338° | - | - |
| 1778027322 | 2.78° C | 73% | 1009.2 hPa | 0 mm | 0.89 m/s, 96° | - | - |
| 1778026289 | 3.33° C | 74% | 1009.1 hPa | 0 mm | 0.89 m/s, 254° | - | - |
| 1778026283 | 3.33° C | 74% | 1009.1 hPa | 0 mm | 0.89 m/s, 254° | - | - |
| 1778025167 | 3.33° C | 74% | 1009 hPa | 0 mm | 1.34 m/s, 344° | - | - |
| 1778024183 | 3.33° C | 73% | 1008.8 hPa | 0 mm | 0.89 m/s, 335° | - | - |
| 1778023178 | 3.89° C | 72% | 1008.8 hPa | 0 mm | 1.34 m/s, 342° | - | - |
| 1778022178 | 3.89° C | 70% | 1008.6 hPa | 0 mm | 0.89 m/s, 160° | - | - |
| 1778021208 | 3.89° C | 71% | 1008.6 hPa | 0 mm | 0.89 m/s, 352° | - | - |
| 1778020088 | 3.89° C | 70% | 1008.6 hPa | 0 mm | 1.34 m/s, 351° | - | - |
| 1778019033 | 3.89° C | 68% | 1008.4 hPa | 0 mm | 1.34 m/s, 97° | - | - |
| 1778017878 | 4.44° C | 67% | 1008.4 hPa | 0 mm | 1.34 m/s, 24° | - | - |
| 1778016703 | 4.44° C | 65% | 1008.3 hPa | 0 mm | 0.89 m/s, 100° | - | - |
| 1778015728 | 5° C | 63% | 1008.1 hPa | 0 mm | 0.89 m/s, 133° | - | - |
| 1778014769 | 5.56° C | 58% | 1007.3 hPa | 0 mm | 0.89 m/s, 21° | - | - |
* Rain latest hour (hover to see other rain measurements)
** Current wind speed in m/s (hover to see current wind gust speed)